createdAt,value
2018-10-09T00:00:27.922Z,7.38
2018-10-09T00:01:27.906Z,7.29
2018-10-09T00:02:28.445Z,7.38
2018-10-09T00:03:27.889Z,7.29
2018-10-09T00:04:27.874Z,7.32
2018-10-09T00:05:28.143Z,7.25
2018-10-09T00:06:27.876Z,7.32
2018-10-09T00:07:27.843Z,7.36
2018-10-09T00:08:27.830Z,7.35
2018-10-09T00:09:27.818Z,7.38
2018-10-09T00:10:28.088Z,7.23
2018-10-09T00:11:27.796Z,7.31
2018-10-09T00:12:28.066Z,7.24
2018-10-09T00:13:28.053Z,7.29
2018-10-09T00:14:27.764Z,7.24
2018-10-09T00:15:27.766Z,7.23
2018-10-09T00:16:27.744Z,7.21
2018-10-09T00:17:27.733Z,7.20
2018-10-09T00:18:27.722Z,7.23
2018-10-09T00:19:27.988Z,7.36
2018-10-09T00:20:27.700Z,7.31
2018-10-09T00:21:27.692Z,7.25
2018-10-09T00:22:27.677Z,7.29
2018-10-09T00:23:27.667Z,7.29
2018-10-09T00:24:27.661Z,7.28
2018-10-09T00:25:27.655Z,7.28
2018-10-09T00:26:27.641Z,7.17
2018-10-09T00:27:27.627Z,7.24
2018-10-09T00:28:27.617Z,7.21
2018-10-09T00:29:27.599Z,7.14
2018-10-09T00:30:27.864Z,7.28
2018-10-09T00:31:27.578Z,7.18
2018-10-09T00:32:27.574Z,7.24
2018-10-09T00:33:27.837Z,7.31
2018-10-09T00:34:27.563Z,7.20
2018-10-09T00:35:27.806Z,7.23
2018-10-09T00:36:27.532Z,7.31
2018-10-09T00:37:27.511Z,7.18
2018-10-09T00:38:27.509Z,7.23
2018-10-09T00:39:27.499Z,7.21
2018-10-09T00:40:27.492Z,7.17
2018-10-09T00:41:28.002Z,7.21
2018-10-09T00:42:27.455Z,7.20
2018-10-09T00:43:27.456Z,7.18
2018-10-09T00:44:27.444Z,7.28
2018-10-09T00:45:27.696Z,7.28
2018-10-09T00:46:27.425Z,7.29
2018-10-09T00:47:27.414Z,7.20
2018-10-09T00:48:27.392Z,7.35
2018-10-09T00:49:27.383Z,7.21
2018-10-09T00:50:27.383Z,7.25
2018-10-09T00:51:27.361Z,7.23
2018-10-09T00:52:27.370Z,7.25
2018-10-09T00:53:27.608Z,7.28
2018-10-09T00:54:27.339Z,7.21
2018-10-09T00:55:27.590Z,7.25
2018-10-09T00:56:27.321Z,7.23
2018-10-09T00:57:27.306Z,7.20
2018-10-09T00:58:27.567Z,7.17
2018-10-09T00:59:27.546Z,7.25
2018-10-09T01:00:27.721Z,7.15
2018-10-09T01:01:27.256Z,7.15
2018-10-09T01:02:27.238Z,7.18
2018-10-09T01:03:27.506Z,7.13
2018-10-09T01:04:27.218Z,7.11
2018-10-09T01:05:27.203Z,7.13
2018-10-09T01:06:27.193Z,7.14
2018-10-09T01:07:27.183Z,7.23
2018-10-09T01:08:27.183Z,7.24
2018-10-09T01:09:27.176Z,7.18
2018-10-09T01:10:27.147Z,7.21
2018-10-09T01:11:27.153Z,7.24
2018-10-09T01:12:27.136Z,7.29
2018-10-09T01:13:27.395Z,7.20
2018-10-09T01:14:27.120Z,7.24
2018-10-09T01:15:27.099Z,7.20
2018-10-09T01:16:27.085Z,7.14
2018-10-09T01:17:27.083Z,7.13
2018-10-09T01:18:27.067Z,7.14
2018-10-09T01:19:27.055Z,7.14
2018-10-09T01:20:27.044Z,7.11
2018-10-09T01:21:27.317Z,7.20
2018-10-09T01:22:27.037Z,7.18
2018-10-09T01:23:27.010Z,7.14
2018-10-09T01:24:27.261Z,7.13
2018-10-09T01:25:26.996Z,7.18
2018-10-09T01:26:26.986Z,7.24
2018-10-09T01:27:26.968Z,7.18
2018-10-09T01:28:27.243Z,7.11
2018-10-09T01:29:26.942Z,7.14
2018-10-09T01:30:26.945Z,7.18
2018-10-09T01:31:26.918Z,7.24
2018-10-09T01:32:26.909Z,7.14
2018-10-09T01:33:26.903Z,7.07
2018-10-09T01:34:26.893Z,7.03
2018-10-09T01:35:26.878Z,7.13
2018-10-09T01:36:26.874Z,7.06
2018-10-09T01:37:26.854Z,7.11
2018-10-09T01:38:26.850Z,7.07
2018-10-09T01:39:26.838Z,7.10
2018-10-09T01:40:26.824Z,7.07
2018-10-09T01:41:26.825Z,7.11
2018-10-09T01:42:26.799Z,7.29
2018-10-09T01:43:26.799Z,7.23
2018-10-09T01:44:26.782Z,7.18
2018-10-09T01:45:26.768Z,7.24
2018-10-09T01:46:26.757Z,7.25
2018-10-09T01:47:26.749Z,7.28
2018-10-09T01:48:26.757Z,7.21
2018-10-09T01:49:26.726Z,7.23
2018-10-09T01:50:26.716Z,7.20
2018-10-09T01:51:26.700Z,7.15
2018-10-09T01:52:26.696Z,7.24
2018-10-09T01:53:26.686Z,7.14
2018-10-09T01:54:26.683Z,7.15
2018-10-09T01:55:26.669Z,7.24
2018-10-09T01:56:26.659Z,7.14
2018-10-09T01:57:26.637Z,7.13
2018-10-09T01:58:26.626Z,7.03
2018-10-09T01:59:26.615Z,7.03
2018-10-09T02:00:26.604Z,7.00
2018-10-09T02:01:26.608Z,7.13
2018-10-09T02:02:26.582Z,7.00
2018-10-09T02:03:27.107Z,6.93
2018-10-09T02:04:26.566Z,7.00
2018-10-09T02:05:26.557Z,7.10
2018-10-09T02:06:26.551Z,6.96
2018-10-09T02:07:26.530Z,6.96
2018-10-09T02:08:26.528Z,6.99
2018-10-09T02:09:26.509Z,7.07
2018-10-09T02:10:26.506Z,7.11
2018-10-09T02:11:26.483Z,6.96
2018-10-09T02:12:26.472Z,6.93
2018-10-09T02:13:26.741Z,6.93
2018-10-09T02:14:26.467Z,7.00
2018-10-09T02:15:26.461Z,6.85
2018-10-09T02:16:26.716Z,6.96
2018-10-09T02:17:26.694Z,7.00
2018-10-09T02:18:26.415Z,6.89
2018-10-09T02:19:26.419Z,6.82
2018-10-09T02:20:26.656Z,6.84
2018-10-09T02:21:26.651Z,6.78
2018-10-09T02:22:26.385Z,6.81
2018-10-09T02:23:26.352Z,6.84
2018-10-09T02:24:26.345Z,6.85
2018-10-09T02:25:26.332Z,6.84
2018-10-09T02:26:27.299Z,6.92
2018-10-09T02:27:26.589Z,6.92
2018-10-09T02:28:26.313Z,6.95
2018-10-09T02:29:26.295Z,6.89
2018-10-09T02:30:26.300Z,6.85
2018-10-09T02:31:26.266Z,6.95
2018-10-09T02:32:26.526Z,6.87
2018-10-09T02:33:26.302Z,6.87
2018-10-09T02:34:26.537Z,6.84
2018-10-09T02:35:26.221Z,6.87
2018-10-09T02:36:26.212Z,6.96
2018-10-09T02:37:26.197Z,6.88
2018-10-09T02:38:26.205Z,6.96
2018-10-09T02:39:26.186Z,7.00
2018-10-09T02:40:26.177Z,6.99
2018-10-09T02:41:26.168Z,7.00
2018-10-09T02:42:26.157Z,6.95
2018-10-09T02:43:26.149Z,6.97
2018-10-09T02:44:26.396Z,6.96
2018-10-09T02:45:26.114Z,7.00
2018-10-09T02:46:26.372Z,6.97
2018-10-09T02:47:26.369Z,6.99
2018-10-09T02:48:26.085Z,6.97
2018-10-09T02:49:26.072Z,6.97
2018-10-09T02:50:26.057Z,6.95
2018-10-09T02:51:26.045Z,6.99
2018-10-09T02:52:26.327Z,7.00
2018-10-09T02:53:26.023Z,6.96
2018-10-09T02:54:26.022Z,6.92
2018-10-09T02:55:26.001Z,6.95
2018-10-09T02:56:25.992Z,6.96
2018-10-09T02:57:25.988Z,6.92
2018-10-09T02:58:26.248Z,6.96
2018-10-09T02:59:25.960Z,6.99
2018-10-09T03:00:26.231Z,6.96
2018-10-09T03:01:25.935Z,7.00
2018-10-09T03:02:25.925Z,6.97
2018-10-09T03:03:25.916Z,6.96
2018-10-09T03:04:26.185Z,7.00
2018-10-09T03:05:25.892Z,6.92
2018-10-09T03:06:25.888Z,6.99
2018-10-09T03:07:25.870Z,6.97
2018-10-09T03:08:25.874Z,7.00
2018-10-09T03:09:26.128Z,6.99
2018-10-09T03:10:25.849Z,6.92
2018-10-09T03:11:25.834Z,7.00
2018-10-09T03:12:25.818Z,7.06
2018-10-09T03:13:25.803Z,7.02
2018-10-09T03:14:25.859Z,7.02
2018-10-09T03:15:25.784Z,6.99
2018-10-09T03:16:25.771Z,6.95
2018-10-09T03:17:25.759Z,6.95
2018-10-09T03:18:25.761Z,7.02
2018-10-09T03:19:25.739Z,6.99
2018-10-09T03:20:26.266Z,7.07
2018-10-09T03:21:25.768Z,7.07
2018-10-09T03:22:25.705Z,7.17
2018-10-09T03:23:25.695Z,7.15
2018-10-09T03:24:25.686Z,7.20
2018-10-09T03:25:25.955Z,7.20
2018-10-09T03:26:25.674Z,7.20
2018-10-09T03:27:25.674Z,7.23
2018-10-09T03:28:25.635Z,7.23
2018-10-09T03:29:25.632Z,7.14
2018-10-09T03:30:25.617Z,7.21
2018-10-09T03:31:25.603Z,7.21
2018-10-09T03:32:25.619Z,7.15
2018-10-09T03:33:25.858Z,7.15
2018-10-09T03:34:25.587Z,7.17
2018-10-09T03:35:25.564Z,7.18
2018-10-09T03:36:25.555Z,7.14
2018-10-09T03:37:25.538Z,7.15
2018-10-09T03:38:25.527Z,7.15
2018-10-09T03:39:25.553Z,7.11
2018-10-09T03:40:26.145Z,7.14
2018-10-09T03:41:25.769Z,7.24
2018-10-09T03:42:25.484Z,7.14
2018-10-09T03:43:25.749Z,7.25
2018-10-09T03:44:25.464Z,7.11
2018-10-09T03:45:25.724Z,7.18
2018-10-09T03:46:25.731Z,7.02
2018-10-09T03:47:25.433Z,7.14
2018-10-09T03:48:25.429Z,7.14
2018-10-09T03:49:25.413Z,7.14
2018-10-09T03:50:25.397Z,7.15
2018-10-09T03:51:25.389Z,7.14
2018-10-09T03:52:25.379Z,7.14
2018-10-09T03:53:25.364Z,7.20
2018-10-09T03:54:25.359Z,7.13
2018-10-09T03:55:25.630Z,7.17
2018-10-09T03:56:25.336Z,7.15
2018-10-09T03:57:25.332Z,7.10
2018-10-09T03:58:25.575Z,7.02
2018-10-09T03:59:25.302Z,6.99
2018-10-09T04:00:25.835Z,7.06
2018-10-09T04:01:25.291Z,6.99
2018-10-09T04:02:25.274Z,7.10
2018-10-09T04:03:25.256Z,7.05
2018-10-09T04:04:25.248Z,7.14
2018-10-09T04:05:25.524Z,7.13
2018-10-09T04:06:25.222Z,7.14
2018-10-09T04:07:25.228Z,7.14
2018-10-09T04:08:25.475Z,7.17
2018-10-09T04:09:25.274Z,7.11
2018-10-09T04:10:25.179Z,7.21
2018-10-09T04:11:25.191Z,7.24
2018-10-09T04:12:25.158Z,7.24
2018-10-09T04:13:25.422Z,7.17
2018-10-09T04:14:25.403Z,7.15
2018-10-09T04:15:25.149Z,7.07
2018-10-09T04:16:25.663Z,6.99
2018-10-09T04:17:25.103Z,7.05
2018-10-09T04:18:25.093Z,7.02
2018-10-09T04:19:25.209Z,7.07
2018-10-09T04:20:25.090Z,7.07
2018-10-09T04:21:25.057Z,7.14
2018-10-09T04:22:25.046Z,7.11
2018-10-09T04:23:25.302Z,7.21
2018-10-09T04:24:25.309Z,7.10
2018-10-09T04:25:25.020Z,7.15
2018-10-09T04:26:25.038Z,7.11
2018-10-09T04:27:24.991Z,7.05
2018-10-09T04:28:25.257Z,7.06
2018-10-09T04:29:25.058Z,7.03
2018-10-09T04:30:24.964Z,7.05
2018-10-09T04:31:24.952Z,7.07
2018-10-09T04:32:24.956Z,7.05
2018-10-09T04:33:24.927Z,7.13
2018-10-09T04:34:24.924Z,7.15
2018-10-09T04:35:24.965Z,7.23
2018-10-09T04:36:24.899Z,7.11
2018-10-09T04:37:25.434Z,7.11
2018-10-09T04:38:24.897Z,7.06
2018-10-09T04:39:24.875Z,7.11
2018-10-09T04:40:24.852Z,7.05
2018-10-09T04:41:24.844Z,7.07
2018-10-09T04:42:25.105Z,7.15
2018-10-09T04:43:25.086Z,7.17
2018-10-09T04:44:24.810Z,7.20
2018-10-09T04:45:24.831Z,7.32
2018-10-09T04:46:24.795Z,7.39
2018-10-09T04:47:24.818Z,7.38
2018-10-09T04:48:24.766Z,7.39
2018-10-09T04:49:24.766Z,7.35
2018-10-09T04:50:24.748Z,7.38
2018-10-09T04:51:24.747Z,7.45
2018-10-09T04:52:24.729Z,7.51
2018-10-09T04:53:24.725Z,7.53
2018-10-09T04:54:24.701Z,7.60
2018-10-09T04:55:24.977Z,7.61
2018-10-09T04:56:24.698Z,7.53
2018-10-09T04:57:24.682Z,7.63
2018-10-09T04:58:24.666Z,7.45
2018-10-09T04:59:24.653Z,7.50
2018-10-09T05:00:24.923Z,7.38
2018-10-09T05:01:24.628Z,7.38
2018-10-09T05:02:24.631Z,7.33
2018-10-09T05:03:24.880Z,7.38
2018-10-09T05:04:24.591Z,7.31
2018-10-09T05:05:24.645Z,7.31
2018-10-09T05:06:24.838Z,7.28
2018-10-09T05:07:24.568Z,7.32
2018-10-09T05:08:24.838Z,7.29
2018-10-09T05:09:24.541Z,7.23
2018-10-09T05:10:24.534Z,7.23
2018-10-09T05:11:24.518Z,7.25
2018-10-09T05:12:25.062Z,7.23
2018-10-09T05:13:24.537Z,7.21
2018-10-09T05:14:24.481Z,7.28
2018-10-09T05:15:24.770Z,7.25
2018-10-09T05:16:24.479Z,7.25
2018-10-09T05:17:24.732Z,7.25
2018-10-09T05:18:24.456Z,7.24
2018-10-09T05:19:24.732Z,7.31
2018-10-09T05:20:24.418Z,7.24
2018-10-09T05:21:24.684Z,7.38
2018-10-09T05:22:24.419Z,7.32
2018-10-09T05:23:24.400Z,7.35
2018-10-09T05:24:24.379Z,7.28
2018-10-09T05:25:24.367Z,7.40
2018-10-09T05:26:24.373Z,7.38
2018-10-09T05:27:24.354Z,7.43
2018-10-09T05:28:24.899Z,7.40
2018-10-09T05:29:24.329Z,7.43
2018-10-09T05:30:25.117Z,7.36
2018-10-09T05:31:24.437Z,7.33
2018-10-09T05:32:24.289Z,7.38
2018-10-09T05:33:24.285Z,7.35
2018-10-09T05:34:24.274Z,7.43
2018-10-09T05:35:24.269Z,7.51
2018-10-09T05:36:24.572Z,7.53
2018-10-09T05:37:24.536Z,7.48
2018-10-09T05:38:24.221Z,7.51
2018-10-09T05:39:24.489Z,7.47
2018-10-09T05:40:24.217Z,7.53
2018-10-09T05:41:24.472Z,7.60
2018-10-09T05:42:24.507Z,7.48
2018-10-09T05:43:24.445Z,7.58
2018-10-09T05:44:24.257Z,7.58
2018-10-09T05:45:24.165Z,7.51
2018-10-09T05:46:24.171Z,7.58
2018-10-09T05:47:24.137Z,7.58
2018-10-09T05:48:24.137Z,7.54
2018-10-09T05:49:24.374Z,7.54
2018-10-09T05:50:24.127Z,7.67
2018-10-09T05:51:24.085Z,7.72
2018-10-09T05:52:24.144Z,7.73
2018-10-09T05:53:24.071Z,7.63
2018-10-09T05:54:25.882Z,7.76
2018-10-09T05:55:24.780Z,7.73
2018-10-09T05:56:24.058Z,7.75
2018-10-09T05:57:24.021Z,7.70
2018-10-09T05:58:24.276Z,7.72
2018-10-09T05:59:24.271Z,7.79
2018-10-09T06:00:24.266Z,7.82
2018-10-09T06:01:24.007Z,7.87
2018-10-09T06:02:23.991Z,7.83
2018-10-09T06:03:24.234Z,7.83
2018-10-09T06:04:24.214Z,7.83
2018-10-09T06:05:23.954Z,7.83
2018-10-09T06:06:23.932Z,7.83
2018-10-09T06:07:23.913Z,7.88
2018-10-09T06:08:23.912Z,7.80
2018-10-09T06:09:23.901Z,7.82
2018-10-09T06:10:24.149Z,7.93
2018-10-09T06:11:23.876Z,7.97
2018-10-09T06:12:23.857Z,7.98
2018-10-09T06:13:23.870Z,7.93
2018-10-09T06:14:23.838Z,7.95
2018-10-09T06:15:24.166Z,7.94
2018-10-09T06:16:23.820Z,7.98
2018-10-09T06:17:23.803Z,8.00
2018-10-09T06:18:23.805Z,8.01
2018-10-09T06:19:24.327Z,8.00
2018-10-09T06:20:23.778Z,7.98
2018-10-09T06:21:23.775Z,8.03
2018-10-09T06:22:23.762Z,8.09
2018-10-09T06:23:24.065Z,8.12
2018-10-09T06:24:23.732Z,8.09
2018-10-09T06:25:23.724Z,8.13
2018-10-09T06:26:23.797Z,8.16
2018-10-09T06:27:24.475Z,8.24
2018-10-09T06:28:23.856Z,8.19
2018-10-09T06:29:24.368Z,8.28
2018-10-09T06:30:23.664Z,8.24
2018-10-09T06:31:23.773Z,8.23
2018-10-09T06:32:23.782Z,8.31
2018-10-09T06:33:23.653Z,8.41
2018-10-09T06:34:23.893Z,8.44
2018-10-09T06:35:23.616Z,8.45
2018-10-09T06:36:23.613Z,8.41
2018-10-09T06:37:23.663Z,8.44
2018-10-09T06:38:23.580Z,8.49
2018-10-09T06:39:24.468Z,8.48
2018-10-09T06:40:23.624Z,8.49
2018-10-09T06:41:23.552Z,8.46
2018-10-09T06:42:23.806Z,8.44
2018-10-09T06:43:23.550Z,8.55
2018-10-09T06:44:23.513Z,8.55
2018-10-09T06:45:23.526Z,8.56
2018-10-09T06:46:23.768Z,8.64
2018-10-09T06:47:23.534Z,8.64
2018-10-09T06:48:23.460Z,8.61
2018-10-09T06:49:23.720Z,8.76
2018-10-09T06:50:23.458Z,8.71
2018-10-09T06:51:23.434Z,8.82
2018-10-09T06:52:23.692Z,8.87
2018-10-09T06:53:23.483Z,8.84
2018-10-09T06:54:23.437Z,8.94
2018-10-09T06:55:23.397Z,8.89
2018-10-09T06:56:23.381Z,9.00
2018-10-09T06:57:23.652Z,9.06
2018-10-09T06:58:23.376Z,9.11
2018-10-09T06:59:23.627Z,9.26
2018-10-09T07:00:23.400Z,9.23
2018-10-09T07:01:23.330Z,9.28
2018-10-09T07:02:23.351Z,9.22
2018-10-09T07:03:23.329Z,9.34
2018-10-09T07:04:23.292Z,9.41
2018-10-09T07:05:23.306Z,9.46
2018-10-09T07:06:23.282Z,9.43
2018-10-09T07:07:24.260Z,9.44
2018-10-09T07:08:23.539Z,9.51
2018-10-09T07:09:23.547Z,9.55
2018-10-09T07:10:23.233Z,9.66
2018-10-09T07:11:23.645Z,9.77
2018-10-09T07:12:23.840Z,9.74
2018-10-09T07:13:23.204Z,9.80
2018-10-09T07:14:23.205Z,9.84
2018-10-09T07:15:25.224Z,9.79
2018-10-09T07:16:23.152Z,9.89
2018-10-09T07:17:23.422Z,9.92
2018-10-09T07:18:23.405Z,10.10
2018-10-09T07:19:23.230Z,10.16
2018-10-09T07:20:23.118Z,10.25
2018-10-09T07:21:23.379Z,10.22
2018-10-09T07:22:23.100Z,10.28
2018-10-09T07:23:23.093Z,10.35
2018-10-09T07:24:23.078Z,10.34
2018-10-09T07:25:23.071Z,10.37
2018-10-09T07:26:23.325Z,10.54
2018-10-09T07:27:23.053Z,10.54
2018-10-09T07:28:23.037Z,10.53
2018-10-09T07:29:23.305Z,10.49
2018-10-09T07:30:23.041Z,10.61
2018-10-09T07:31:23.005Z,10.59
2018-10-09T07:32:22.998Z,10.74
2018-10-09T07:33:23.259Z,10.72
2018-10-09T07:34:22.990Z,10.82
2018-10-09T07:35:23.224Z,10.84
2018-10-09T07:36:23.238Z,10.97
2018-10-09T07:37:23.004Z,11.00
2018-10-09T07:38:22.945Z,11.11
2018-10-09T07:39:22.928Z,11.18
2018-10-09T07:40:23.182Z,11.26
2018-10-09T07:41:23.163Z,11.33
2018-10-09T07:42:22.883Z,11.36
2018-10-09T07:43:22.958Z,11.35
2018-10-09T07:44:22.933Z,11.35
2018-10-09T07:45:22.852Z,11.47
2018-10-09T07:46:22.845Z,11.54
2018-10-09T07:47:22.845Z,11.63
2018-10-09T07:48:22.816Z,11.68
2018-10-09T07:49:23.062Z,11.62
2018-10-09T07:50:22.788Z,11.66
2018-10-09T07:51:22.791Z,11.66
2018-10-09T07:52:22.792Z,11.68
2018-10-09T07:53:22.754Z,11.63
2018-10-09T07:54:23.034Z,11.72
2018-10-09T07:55:22.999Z,11.81
2018-10-09T07:56:22.751Z,11.78
2018-10-09T07:57:22.716Z,11.78
2018-10-09T07:58:22.722Z,11.80
2018-10-09T07:59:22.688Z,11.81
2018-10-09T08:00:22.968Z,11.91
2018-10-09T08:01:23.662Z,11.97
2018-10-09T08:02:22.680Z,11.94
2018-10-09T08:03:22.661Z,12.06
2018-10-09T08:04:22.635Z,12.06
2018-10-09T08:05:22.636Z,12.15
2018-10-09T08:06:22.920Z,12.17
2018-10-09T08:07:22.606Z,12.22
2018-10-09T08:08:22.601Z,12.20
2018-10-09T08:09:22.849Z,12.24
2018-10-09T08:10:22.618Z,12.39
2018-10-09T08:11:22.561Z,12.40
2018-10-09T08:12:25.352Z,12.42
2018-10-09T08:13:22.544Z,12.60
2018-10-09T08:14:22.790Z,12.70
2018-10-09T08:15:22.522Z,12.73
2018-10-09T08:16:22.843Z,12.86
2018-10-09T08:17:22.490Z,13.01
2018-10-09T08:18:22.495Z,12.98
2018-10-09T08:19:22.492Z,12.97
2018-10-09T08:20:22.453Z,13.09
2018-10-09T08:21:22.723Z,13.11
2018-10-09T08:22:23.526Z,13.23
2018-10-09T08:23:22.730Z,13.25
2018-10-09T08:24:22.413Z,13.46
2018-10-09T08:25:22.430Z,13.44
2018-10-09T08:26:22.410Z,13.53
2018-10-09T08:27:22.420Z,13.54
2018-10-09T08:28:22.728Z,13.62
2018-10-09T08:29:22.376Z,13.62
2018-10-09T08:30:22.347Z,13.72
2018-10-09T08:31:22.605Z,13.75
2018-10-09T08:32:22.620Z,13.79
2018-10-09T08:33:22.332Z,13.87
2018-10-09T08:34:22.633Z,13.86
2018-10-09T08:35:22.296Z,13.90
2018-10-09T08:36:22.284Z,14.07
2018-10-09T08:37:22.635Z,14.04
2018-10-09T08:38:22.259Z,14.11
2018-10-09T08:39:22.571Z,14.23
2018-10-09T08:40:22.329Z,14.25
2018-10-09T08:41:22.298Z,14.29
2018-10-09T08:42:22.253Z,14.44
2018-10-09T08:43:22.220Z,14.47
2018-10-09T08:44:22.199Z,14.68
2018-10-09T08:45:22.181Z,14.68
2018-10-09T08:46:22.512Z,14.73
2018-10-09T08:47:22.171Z,14.86
2018-10-09T08:48:22.150Z,14.79
2018-10-09T08:49:22.442Z,15.03
2018-10-09T08:50:22.140Z,14.97
2018-10-09T08:51:22.116Z,15.04
2018-10-09T08:52:22.379Z,15.06
2018-10-09T08:53:22.150Z,15.22
2018-10-09T08:54:22.135Z,15.22
2018-10-09T08:55:22.360Z,15.39
2018-10-09T08:56:22.093Z,15.43
2018-10-09T08:57:22.344Z,15.44
2018-10-09T08:58:22.079Z,15.52
2018-10-09T08:59:22.032Z,15.49
2018-10-09T09:00:22.674Z,15.59
2018-10-09T09:01:22.286Z,15.65
2018-10-09T09:02:22.010Z,15.61
2018-10-09T09:03:22.011Z,15.58
2018-10-09T09:04:21.984Z,15.58
2018-10-09T09:05:22.277Z,15.75
2018-10-09T09:06:21.948Z,15.61
2018-10-09T09:07:21.959Z,15.55
2018-10-09T09:08:21.936Z,15.58
2018-10-09T09:09:21.928Z,15.54
2018-10-09T09:10:21.939Z,15.47
2018-10-09T09:11:21.895Z,15.52
2018-10-09T09:12:21.911Z,15.54
2018-10-09T09:13:22.248Z,15.44
2018-10-09T09:14:22.548Z,15.51
2018-10-09T09:15:21.913Z,15.51
2018-10-09T09:16:24.842Z,15.51
2018-10-09T09:17:21.835Z,15.55
2018-10-09T09:18:21.822Z,15.54
2018-10-09T09:19:21.839Z,15.47
2018-10-09T09:20:22.090Z,15.52
2018-10-09T09:21:22.134Z,15.51
2018-10-09T09:22:21.789Z,15.52
2018-10-09T09:23:21.791Z,15.51
2018-10-09T09:24:21.809Z,15.46
2018-10-09T09:25:21.743Z,15.42
2018-10-09T09:26:21.787Z,15.39
2018-10-09T09:27:22.056Z,15.51
2018-10-09T09:28:21.976Z,15.51
2018-10-09T09:29:21.739Z,15.55
2018-10-09T09:30:26.880Z,15.44
2018-10-09T09:31:21.679Z,15.52
2018-10-09T09:32:21.670Z,15.49
2018-10-09T09:33:21.708Z,15.52
2018-10-09T09:34:21.909Z,15.59
2018-10-09T09:35:21.938Z,15.58
2018-10-09T09:36:21.905Z,15.62
2018-10-09T09:37:21.605Z,15.72
2018-10-09T09:38:21.616Z,15.75
2018-10-09T09:39:21.611Z,15.86
2018-10-09T09:40:21.638Z,15.91
2018-10-09T09:41:21.854Z,15.88
2018-10-09T09:42:21.585Z,16.00
2018-10-09T09:43:23.981Z,16.05
2018-10-09T09:44:21.548Z,16.08
2018-10-09T09:45:21.787Z,16.08
2018-10-09T09:46:21.588Z,16.12
2018-10-09T09:47:21.803Z,16.16
2018-10-09T09:48:21.509Z,16.23
2018-10-09T09:49:21.481Z,16.32
2018-10-09T09:50:21.465Z,16.39
2018-10-09T09:51:22.215Z,16.46
2018-10-09T09:52:21.452Z,16.50
2018-10-09T09:53:21.433Z,16.58
2018-10-09T09:54:21.438Z,16.51
2018-10-09T09:55:21.412Z,16.75
2018-10-09T09:56:21.485Z,16.79
2018-10-09T09:57:21.396Z,16.79
2018-10-09T09:58:21.462Z,16.78
2018-10-09T09:59:22.210Z,16.89
2018-10-09T10:00:21.363Z,16.84
2018-10-09T10:01:22.993Z,16.86
2018-10-09T10:02:21.948Z,16.91
2018-10-09T10:03:22.104Z,16.96
2018-10-09T10:04:22.984Z,16.97
2018-10-09T10:05:21.358Z,17.08
2018-10-09T10:06:21.304Z,17.11
2018-10-09T10:07:21.382Z,17.12
2018-10-09T10:08:21.359Z,17.08
2018-10-09T10:09:21.359Z,17.09
2018-10-09T10:10:21.412Z,17.15
2018-10-09T10:11:21.524Z,17.26
2018-10-09T10:12:21.463Z,17.20
2018-10-09T10:13:21.342Z,17.31
2018-10-09T10:14:21.258Z,17.31
2018-10-09T10:15:23.119Z,17.39
2018-10-09T10:16:37.157Z,17.48
2018-10-09T10:17:21.392Z,17.45
2018-10-09T10:18:21.440Z,17.49
2018-10-09T10:19:21.165Z,17.49
2018-10-09T10:20:21.181Z,17.45
2018-10-09T10:21:21.207Z,17.49
2018-10-09T10:22:22.400Z,17.49
2018-10-09T10:23:21.155Z,17.52
2018-10-09T10:24:21.113Z,17.59
2018-10-09T10:25:21.098Z,17.63
2018-10-09T10:26:21.209Z,17.64
2018-10-09T10:27:21.078Z,17.71
2018-10-09T10:28:21.094Z,17.67
2018-10-09T10:29:21.330Z,17.71
2018-10-09T10:30:21.041Z,17.86
2018-10-09T10:31:21.028Z,17.79
2018-10-09T10:32:21.045Z,17.78
2018-10-09T10:33:21.008Z,17.83
2018-10-09T10:34:21.421Z,17.87
2018-10-09T10:35:21.126Z,17.97
2018-10-09T10:36:20.972Z,18.03
2018-10-09T10:37:21.288Z,18.05
2018-10-09T10:38:20.968Z,18.16
2018-10-09T10:39:21.379Z,18.05
2018-10-09T10:40:20.925Z,18.03
2018-10-09T10:41:21.335Z,18.07
2018-10-09T10:42:20.934Z,18.10
2018-10-09T10:43:20.950Z,18.05
2018-10-09T10:44:21.161Z,18.16
2018-10-09T10:45:20.972Z,18.13
2018-10-09T10:46:20.874Z,18.29
2018-10-09T10:47:20.871Z,18.40
2018-10-09T10:48:20.852Z,18.41
2018-10-09T10:49:21.403Z,18.45
2018-10-09T10:50:21.372Z,18.52
2018-10-09T10:51:20.833Z,18.56
2018-10-09T10:52:21.111Z,18.59
2018-10-09T10:53:21.154Z,18.63
2018-10-09T10:54:20.833Z,18.66
2018-10-09T10:55:21.437Z,18.68
2018-10-09T10:56:20.755Z,18.70
2018-10-09T10:57:21.021Z,18.70
2018-10-09T10:58:20.997Z,18.58
2018-10-09T10:59:20.720Z,18.74
2018-10-09T11:00:20.744Z,18.80
2018-10-09T11:01:21.520Z,18.83
2018-10-09T11:02:20.718Z,18.83
2018-10-09T11:03:21.325Z,18.95
2018-10-09T11:04:20.699Z,18.98
2018-10-09T11:05:20.696Z,18.95
2018-10-09T11:06:20.917Z,18.99
2018-10-09T11:07:20.656Z,19.09
2018-10-09T11:08:22.042Z,19.04
2018-10-09T11:09:20.759Z,19.07
2018-10-09T11:10:20.612Z,19.19
2018-10-09T11:11:20.616Z,19.12
2018-10-09T11:12:20.580Z,19.16
2018-10-09T11:13:21.555Z,19.26
2018-10-09T11:14:20.679Z,19.33
2018-10-09T11:15:20.592Z,19.41
2018-10-09T11:16:20.542Z,19.52
2018-10-09T11:17:21.935Z,19.51
2018-10-09T11:18:21.106Z,19.59
2018-10-09T11:19:20.926Z,19.62
2018-10-09T11:20:20.497Z,19.69
2018-10-09T11:21:20.652Z,19.67
2018-10-09T11:22:20.652Z,19.66
2018-10-09T11:23:20.480Z,19.70
2018-10-09T11:24:20.468Z,19.64
2018-10-09T11:25:20.539Z,19.69
2018-10-09T11:26:20.427Z,19.77
2018-10-09T11:27:20.698Z,19.82
2018-10-09T11:28:20.407Z,19.77
2018-10-09T11:29:20.429Z,19.77
2018-10-09T11:30:21.342Z,19.71
2018-10-09T11:31:20.375Z,19.76
2018-10-09T11:32:23.137Z,19.73
2018-10-09T11:33:20.349Z,19.91
2018-10-09T11:34:20.364Z,19.82
2018-10-09T11:35:20.345Z,19.92
2018-10-09T11:36:20.326Z,19.92
2018-10-09T11:37:20.661Z,19.91
2018-10-09T11:38:20.457Z,20.00
2018-10-09T11:39:20.318Z,20.06
2018-10-09T11:40:20.312Z,20.03
2018-10-09T11:41:28.168Z,20.00
2018-10-09T11:42:20.262Z,19.89
2018-10-09T11:43:20.296Z,19.88
2018-10-09T11:44:20.234Z,19.88
2018-10-09T11:45:24.269Z,19.94
2018-10-09T11:46:20.570Z,19.84
2018-10-09T11:47:20.200Z,19.91
2018-10-09T11:48:20.462Z,19.89
2018-10-09T11:49:20.187Z,19.82
2018-10-09T11:50:20.177Z,19.73
2018-10-09T11:51:20.441Z,19.82
2018-10-09T11:52:20.302Z,19.84
2018-10-09T11:53:20.135Z,19.79
2018-10-09T11:54:20.490Z,19.76
2018-10-09T11:55:20.132Z,19.82
2018-10-09T11:56:20.129Z,19.79
2018-10-09T11:57:20.099Z,19.77
2018-10-09T11:58:20.098Z,19.79
2018-10-09T11:59:20.357Z,19.74
2018-10-09T12:00:24.385Z,19.69
2018-10-09T12:01:20.060Z,19.71
2018-10-09T12:02:20.039Z,19.70
2018-10-09T12:03:21.575Z,19.69
2018-10-09T12:04:20.122Z,19.74
2018-10-09T12:05:23.305Z,19.74
2018-10-09T12:06:19.995Z,19.70
2018-10-09T12:07:20.081Z,19.76
2018-10-09T12:08:19.972Z,19.62
2018-10-09T12:09:19.989Z,19.76
2018-10-09T12:10:19.947Z,19.70
2018-10-09T12:11:19.996Z,19.56
2018-10-09T12:12:20.205Z,19.69
2018-10-09T12:13:19.926Z,19.74
2018-10-09T12:14:20.048Z,19.70
2018-10-09T12:15:19.944Z,19.69
2018-10-09T12:16:19.893Z,19.70
2018-10-09T12:17:19.985Z,19.70
2018-10-09T12:18:20.162Z,19.66
2018-10-09T12:19:19.867Z,19.62
2018-10-09T12:20:20.102Z,19.62
2018-10-09T12:21:19.862Z,19.64
2018-10-09T12:22:19.993Z,19.64
2018-10-09T12:23:19.829Z,19.58
2018-10-09T12:24:19.836Z,19.64
2018-10-09T12:25:20.091Z,19.71
2018-10-09T12:26:20.073Z,19.63
2018-10-09T12:27:19.787Z,19.74
2018-10-09T12:28:19.772Z,19.70
2018-10-09T12:29:19.758Z,19.64
2018-10-09T12:30:21.033Z,19.64
2018-10-09T12:31:19.999Z,19.71
2018-10-09T12:32:19.723Z,19.66
2018-10-09T12:33:19.735Z,19.59
2018-10-09T12:34:19.714Z,19.64
2018-10-09T12:35:19.703Z,19.66
2018-10-09T12:36:19.679Z,19.70
2018-10-09T12:37:19.713Z,19.69
2018-10-09T12:38:19.768Z,19.63
2018-10-09T12:39:19.982Z,19.59
2018-10-09T12:40:21.943Z,19.64
2018-10-09T12:41:19.624Z,19.56
2018-10-09T12:42:19.622Z,19.54
2018-10-09T12:43:19.710Z,19.64
2018-10-09T12:44:21.437Z,19.55
2018-10-09T12:45:21.446Z,19.45
2018-10-09T12:46:20.105Z,19.41
2018-10-09T12:47:19.897Z,19.44
